sensor_id;sensor_type;location;lat;lon;timestamp;P1;durP1;ratioP1;P2;durP2;ratioP2
51236;SDS011;37312;47.550;18.818;2022-11-14T00:00:30;26.70;;;21.27;;
51236;SDS011;37312;47.550;18.818;2022-11-14T00:03:06;24.67;;;18.50;;
51236;SDS011;37312;47.550;18.818;2022-11-14T00:05:38;28.23;;;18.33;;
51236;SDS011;37312;47.550;18.818;2022-11-14T00:08:06;58.45;;;51.47;;
51236;SDS011;37312;47.550;18.818;2022-11-14T00:10:38;23.83;;;16.05;;
51236;SDS011;37312;47.550;18.818;2022-11-14T00:13:04;22.98;;;16.10;;
51236;SDS011;37312;47.550;18.818;2022-11-14T00:15:30;31.35;;;18.27;;
51236;SDS011;37312;47.550;18.818;2022-11-14T00:17:56;22.45;;;16.25;;
51236;SDS011;37312;47.550;18.818;2022-11-14T00:20:22;23.05;;;15.13;;
51236;SDS011;37312;47.550;18.818;2022-11-14T00:22:47;29.70;;;19.33;;
51236;SDS011;37312;47.550;18.818;2022-11-14T00:25:13;29.85;;;17.98;;
51236;SDS011;37312;47.550;18.818;2022-11-14T00:27:39;19.10;;;15.07;;
51236;SDS011;37312;47.550;18.818;2022-11-14T00:30:05;21.42;;;15.48;;
51236;SDS011;37312;47.550;18.818;2022-11-14T00:32:32;17.67;;;15.15;;
51236;SDS011;37312;47.550;18.818;2022-11-14T00:34:57;20.65;;;15.98;;
51236;SDS011;37312;47.550;18.818;2022-11-14T00:37:23;19.67;;;15.40;;
51236;SDS011;37312;47.550;18.818;2022-11-14T00:39:49;26.33;;;16.12;;
51236;SDS011;37312;47.550;18.818;2022-11-14T00:42:15;21.75;;;15.65;;
51236;SDS011;37312;47.550;18.818;2022-11-14T00:44:43;23.83;;;17.52;;
51236;SDS011;37312;47.550;18.818;2022-11-14T00:47:09;21.17;;;15.40;;
51236;SDS011;37312;47.550;18.818;2022-11-14T00:49:35;23.80;;;14.90;;
51236;SDS011;37312;47.550;18.818;2022-11-14T00:52:01;27.30;;;18.12;;
51236;SDS011;37312;47.550;18.818;2022-11-14T00:54:27;22.08;;;15.73;;
51236;SDS011;37312;47.550;18.818;2022-11-14T00:56:53;22.10;;;17.50;;
51236;SDS011;37312;47.550;18.818;2022-11-14T00:59:19;21.95;;;17.65;;
51236;SDS011;37312;47.550;18.818;2022-11-14T01:01:45;28.87;;;19.65;;
51236;SDS011;37312;47.550;18.818;2022-11-14T01:04:11;20.52;;;18.15;;
51236;SDS011;37312;47.550;18.818;2022-11-14T01:06:37;25.85;;;18.70;;
51236;SDS011;37312;47.550;18.818;2022-11-14T01:09:03;24.63;;;19.40;;
51236;SDS011;37312;47.550;18.818;2022-11-14T01:11:29;22.05;;;17.23;;
51236;SDS011;37312;47.550;18.818;2022-11-14T01:13:55;21.33;;;17.80;;
51236;SDS011;37312;47.550;18.818;2022-11-14T01:16:21;21.62;;;16.00;;
51236;SDS011;37312;47.550;18.818;2022-11-14T01:18:47;19.62;;;17.15;;
51236;SDS011;37312;47.550;18.818;2022-11-14T01:21:13;26.30;;;16.58;;
51236;SDS011;37312;47.550;18.818;2022-11-14T01:23:39;22.77;;;18.12;;
51236;SDS011;37312;47.550;18.818;2022-11-14T01:26:06;23.65;;;17.15;;
51236;SDS011;37312;47.550;18.818;2022-11-14T01:28:34;29.20;;;17.67;;
51236;SDS011;37312;47.550;18.818;2022-11-14T01:31:07;21.92;;;15.23;;
51236;SDS011;37312;47.550;18.818;2022-11-14T01:33:41;52.50;;;47.40;;
51236;SDS011;37312;47.550;18.818;2022-11-14T01:38:34;18.08;;;16.10;;
51236;SDS011;37312;47.550;18.818;2022-11-14T01:43:35;25.48;;;15.43;;
51236;SDS011;37312;47.550;18.818;2022-11-14T01:51:17;22.00;;;16.52;;
51236;SDS011;37312;47.550;18.818;2022-11-14T01:53:47;17.48;;;15.68;;
51236;SDS011;37312;47.550;18.818;2022-11-14T01:56:18;21.05;;;17.23;;
51236;SDS011;37312;47.550;18.818;2022-11-14T01:58:50;22.42;;;16.90;;
51236;SDS011;37312;47.550;18.818;2022-11-14T02:01:19;22.77;;;14.38;;
51236;SDS011;37312;47.550;18.818;2022-11-14T02:03:45;23.92;;;17.37;;
51236;SDS011;37312;47.550;18.818;2022-11-14T02:06:15;22.10;;;15.85;;
51236;SDS011;37312;47.550;18.818;2022-11-14T02:08:44;17.12;;;15.38;;
51236;SDS011;37312;47.550;18.818;2022-11-14T02:11:12;24.92;;;16.85;;
51236;SDS011;37312;47.550;18.818;2022-11-14T02:13:38;17.25;;;15.27;;
51236;SDS011;37312;47.550;18.818;2022-11-14T02:16:04;27.30;;;18.42;;
51236;SDS011;37312;47.550;18.818;2022-11-14T02:18:31;22.60;;;17.42;;
51236;SDS011;37312;47.550;18.818;2022-11-14T02:20:57;46.80;;;21.37;;
51236;SDS011;37312;47.550;18.818;2022-11-14T02:23:24;55.83;;;21.33;;
51236;SDS011;37312;47.550;18.818;2022-11-14T02:25:54;25.77;;;17.80;;
51236;SDS011;37312;47.550;18.818;2022-11-14T02:30:47;24.55;;;18.83;;
51236;SDS011;37312;47.550;18.818;2022-11-14T02:33:14;27.80;;;18.02;;
51236;SDS011;37312;47.550;18.818;2022-11-14T02:35:40;17.73;;;14.23;;
51236;SDS011;37312;47.550;18.818;2022-11-14T02:38:06;16.40;;;13.88;;
51236;SDS011;37312;47.550;18.818;2022-11-14T02:40:32;25.17;;;15.18;;
51236;SDS011;37312;47.550;18.818;2022-11-14T02:42:59;21.55;;;15.35;;
51236;SDS011;37312;47.550;18.818;2022-11-14T02:45:25;32.47;;;14.98;;
51236;SDS011;37312;47.550;18.818;2022-11-14T02:47:51;28.50;;;14.40;;
51236;SDS011;37312;47.550;18.818;2022-11-14T02:50:17;21.67;;;11.95;;
51236;SDS011;37312;47.550;18.818;2022-11-14T02:52:43;13.82;;;10.70;;
51236;SDS011;37312;47.550;18.818;2022-11-14T02:55:09;17.30;;;13.77;;
51236;SDS011;37312;47.550;18.818;2022-11-14T02:57:35;14.18;;;12.57;;
51236;SDS011;37312;47.550;18.818;2022-11-14T03:00:01;19.23;;;13.35;;
51236;SDS011;37312;47.550;18.818;2022-11-14T03:02:27;24.73;;;14.25;;
51236;SDS011;37312;47.550;18.818;2022-11-14T03:04:53;15.32;;;13.73;;
51236;SDS011;37312;47.550;18.818;2022-11-14T03:07:19;17.90;;;14.13;;
51236;SDS011;37312;47.550;18.818;2022-11-14T03:09:46;15.57;;;13.73;;
51236;SDS011;37312;47.550;18.818;2022-11-14T03:12:14;13.70;;;12.10;;
51236;SDS011;37312;47.550;18.818;2022-11-14T03:14:41;14.27;;;12.98;;
51236;SDS011;37312;47.550;18.818;2022-11-14T03:17:07;12.07;;;10.27;;
51236;SDS011;37312;47.550;18.818;2022-11-14T03:19:33;15.25;;;13.77;;
51236;SDS011;37312;47.550;18.818;2022-11-14T03:21:59;13.32;;;11.95;;
51236;SDS011;37312;47.550;18.818;2022-11-14T03:24:25;14.68;;;11.27;;
51236;SDS011;37312;47.550;18.818;2022-11-14T03:26:51;12.45;;;10.45;;
51236;SDS011;37312;47.550;18.818;2022-11-14T03:29:17;16.80;;;11.95;;
51236;SDS011;37312;47.550;18.818;2022-11-14T03:31:43;18.77;;;12.27;;
51236;SDS011;37312;47.550;18.818;2022-11-14T03:34:09;14.30;;;12.85;;
51236;SDS011;37312;47.550;18.818;2022-11-14T03:36:36;14.52;;;12.77;;
51236;SDS011;37312;47.550;18.818;2022-11-14T03:41:28;14.85;;;11.90;;
51236;SDS011;37312;47.550;18.818;2022-11-14T03:43:54;17.87;;;14.02;;
51236;SDS011;37312;47.550;18.818;2022-11-14T03:46:20;15.85;;;11.35;;
51236;SDS011;37312;47.550;18.818;2022-11-14T03:48:46;15.27;;;12.37;;
51236;SDS011;37312;47.550;18.818;2022-11-14T03:51:12;14.98;;;11.80;;
51236;SDS011;37312;47.550;18.818;2022-11-14T03:53:38;15.00;;;13.05;;
51236;SDS011;37312;47.550;18.818;2022-11-14T03:56:04;12.90;;;11.60;;
51236;SDS011;37312;47.550;18.818;2022-11-14T03:58:30;15.10;;;12.70;;
51236;SDS011;37312;47.550;18.818;2022-11-14T04:00:56;16.87;;;15.27;;
51236;SDS011;37312;47.550;18.818;2022-11-14T04:03:23;38.13;;;16.40;;
51236;SDS011;37312;47.550;18.818;2022-11-14T04:08:15;11.12;;;10.00;;
51236;SDS011;37312;47.550;18.818;2022-11-14T04:10:41;18.50;;;12.15;;
51236;SDS011;37312;47.550;18.818;2022-11-14T04:13:07;21.17;;;12.77;;
51236;SDS011;37312;47.550;18.818;2022-11-14T04:17:59;18.12;;;11.15;;
51236;SDS011;37312;47.550;18.818;2022-11-14T04:20:25;29.95;;;14.05;;
51236;SDS011;37312;47.550;18.818;2022-11-14T04:22:51;30.88;;;16.67;;
51236;SDS011;37312;47.550;18.818;2022-11-14T04:25:17;30.95;;;15.88;;
51236;SDS011;37312;47.550;18.818;2022-11-14T04:27:43;41.30;;;16.50;;
51236;SDS011;37312;47.550;18.818;2022-11-14T04:30:09;31.75;;;17.90;;
51236;SDS011;37312;47.550;18.818;2022-11-14T04:32:35;62.28;;;17.75;;
51236;SDS011;37312;47.550;18.818;2022-11-14T04:35:02;30.83;;;14.63;;
51236;SDS011;37312;47.550;18.818;2022-11-14T04:37:27;38.88;;;18.98;;
51236;SDS011;37312;47.550;18.818;2022-11-14T04:39:53;24.83;;;13.80;;
51236;SDS011;37312;47.550;18.818;2022-11-14T04:42:25;18.42;;;13.82;;
51236;SDS011;37312;47.550;18.818;2022-11-14T04:44:51;23.62;;;15.52;;
51236;SDS011;37312;47.550;18.818;2022-11-14T04:47:17;21.40;;;13.00;;
51236;SDS011;37312;47.550;18.818;2022-11-14T04:49:43;17.55;;;13.07;;
51236;SDS011;37312;47.550;18.818;2022-11-14T04:52:09;11.90;;;10.55;;
51236;SDS011;37312;47.550;18.818;2022-11-14T04:54:35;17.20;;;12.93;;
51236;SDS011;37312;47.550;18.818;2022-11-14T04:57:01;19.10;;;12.23;;
51236;SDS011;37312;47.550;18.818;2022-11-14T04:59:27;34.25;;;15.23;;
51236;SDS011;37312;47.550;18.818;2022-11-14T05:01:52;17.62;;;13.15;;
51236;SDS011;37312;47.550;18.818;2022-11-14T05:04:18;15.43;;;13.20;;
51236;SDS011;37312;47.550;18.818;2022-11-14T05:06:44;27.02;;;16.15;;
51236;SDS011;37312;47.550;18.818;2022-11-14T05:09:10;19.77;;;12.40;;
51236;SDS011;37312;47.550;18.818;2022-11-14T05:11:36;21.95;;;13.45;;
51236;SDS011;37312;47.550;18.818;2022-11-14T05:14:02;16.23;;;13.20;;
51236;SDS011;37312;47.550;18.818;2022-11-14T05:16:28;19.08;;;14.85;;
51236;SDS011;37312;47.550;18.818;2022-11-14T05:18:54;15.90;;;14.23;;
51236;SDS011;37312;47.550;18.818;2022-11-14T05:21:20;16.80;;;13.32;;
51236;SDS011;37312;47.550;18.818;2022-11-14T05:23:46;18.05;;;12.20;;
51236;SDS011;37312;47.550;18.818;2022-11-14T05:26:15;16.35;;;9.35;;
51236;SDS011;37312;47.550;18.818;2022-11-14T05:28:42;15.35;;;10.85;;
51236;SDS011;37312;47.550;18.818;2022-11-14T05:31:09;21.92;;;10.13;;
51236;SDS011;37312;47.550;18.818;2022-11-14T05:33:42;16.08;;;13.10;;
51236;SDS011;37312;47.550;18.818;2022-11-14T05:36:10;48.92;;;14.35;;
51236;SDS011;37312;47.550;18.818;2022-11-14T05:38:37;28.20;;;12.20;;
51236;SDS011;37312;47.550;18.818;2022-11-14T05:41:04;15.18;;;12.90;;
51236;SDS011;37312;47.550;18.818;2022-11-14T05:43:31;9.98;;;7.60;;
51236;SDS011;37312;47.550;18.818;2022-11-14T05:46:00;12.95;;;11.10;;
51236;SDS011;37312;47.550;18.818;2022-11-14T05:48:27;9.98;;;7.37;;
51236;SDS011;37312;47.550;18.818;2022-11-14T05:50:54;14.15;;;12.20;;
51236;SDS011;37312;47.550;18.818;2022-11-14T05:53:24;11.05;;;9.65;;
51236;SDS011;37312;47.550;18.818;2022-11-14T05:55:51;12.75;;;10.38;;
51236;SDS011;37312;47.550;18.818;2022-11-14T06:00:45;14.15;;;10.35;;
51236;SDS011;37312;47.550;18.818;2022-11-14T06:03:11;10.48;;;8.63;;
51236;SDS011;37312;47.550;18.818;2022-11-14T06:05:39;15.07;;;10.48;;
51236;SDS011;37312;47.550;18.818;2022-11-14T06:08:05;10.30;;;9.07;;
51236;SDS011;37312;47.550;18.818;2022-11-14T06:10:33;13.75;;;11.82;;
51236;SDS011;37312;47.550;18.818;2022-11-14T06:12:59;12.32;;;10.48;;
51236;SDS011;37312;47.550;18.818;2022-11-14T06:15:25;18.08;;;13.88;;
51236;SDS011;37312;47.550;18.818;2022-11-14T06:17:54;22.83;;;14.32;;
51236;SDS011;37312;47.550;18.818;2022-11-14T06:20:20;12.27;;;10.15;;
51236;SDS011;37312;47.550;18.818;2022-11-14T06:22:46;15.40;;;12.45;;
51236;SDS011;37312;47.550;18.818;2022-11-14T06:25:11;8.75;;;7.82;;
51236;SDS011;37312;47.550;18.818;2022-11-14T06:27:37;16.15;;;12.27;;
51236;SDS011;37312;47.550;18.818;2022-11-14T06:30:03;12.35;;;11.12;;
51236;SDS011;37312;47.550;18.818;2022-11-14T06:32:30;15.65;;;11.00;;
51236;SDS011;37312;47.550;18.818;2022-11-14T06:34:56;18.27;;;14.55;;
51236;SDS011;37312;47.550;18.818;2022-11-14T06:37:22;20.75;;;13.48;;
51236;SDS011;37312;47.550;18.818;2022-11-14T06:39:49;28.15;;;15.40;;
51236;SDS011;37312;47.550;18.818;2022-11-14T06:42:15;22.02;;;13.60;;
51236;SDS011;37312;47.550;18.818;2022-11-14T06:44:42;25.00;;;20.70;;
51236;SDS011;37312;47.550;18.818;2022-11-14T06:47:07;27.08;;;13.05;;
51236;SDS011;37312;47.550;18.818;2022-11-14T06:49:33;22.33;;;12.45;;
51236;SDS011;37312;47.550;18.818;2022-11-14T06:51:59;18.83;;;12.88;;
51236;SDS011;37312;47.550;18.818;2022-11-14T06:54:25;17.02;;;10.68;;
51236;SDS011;37312;47.550;18.818;2022-11-14T06:56:51;31.05;;;14.05;;
51236;SDS011;37312;47.550;18.818;2022-11-14T06:59:17;23.60;;;12.23;;
51236;SDS011;37312;47.550;18.818;2022-11-14T07:01:43;20.55;;;11.85;;
51236;SDS011;37312;47.550;18.818;2022-11-14T07:04:09;15.05;;;10.07;;
51236;SDS011;37312;47.550;18.818;2022-11-14T07:06:35;15.63;;;12.15;;
51236;SDS011;37312;47.550;18.818;2022-11-14T07:10:15;29.17;;;15.70;;
51236;SDS011;37312;47.550;18.818;2022-11-14T07:12:41;13.35;;;11.98;;
51236;SDS011;37312;47.550;18.818;2022-11-14T07:15:07;12.32;;;10.35;;
51236;SDS011;37312;47.550;18.818;2022-11-14T07:20:00;22.67;;;10.82;;
51236;SDS011;37312;47.550;18.818;2022-11-14T07:22:26;15.68;;;11.12;;
51236;SDS011;37312;47.550;18.818;2022-11-14T07:24:52;12.80;;;10.77;;
51236;SDS011;37312;47.550;18.818;2022-11-14T07:27:18;11.98;;;9.80;;
51236;SDS011;37312;47.550;18.818;2022-11-14T07:29:44;17.70;;;11.63;;
51236;SDS011;37312;47.550;18.818;2022-11-14T07:32:10;16.45;;;12.57;;
51236;SDS011;37312;47.550;18.818;2022-11-14T07:34:36;28.67;;;25.83;;
51236;SDS011;37312;47.550;18.818;2022-11-14T07:37:02;24.77;;;22.33;;
51236;SDS011;37312;47.550;18.818;2022-11-14T07:39:28;24.67;;;22.35;;
51236;SDS011;37312;47.550;18.818;2022-11-14T07:41:54;25.27;;;22.33;;
51236;SDS011;37312;47.550;18.818;2022-11-14T07:44:20;21.87;;;19.90;;
51236;SDS011;37312;47.550;18.818;2022-11-14T07:46:46;22.90;;;20.73;;
51236;SDS011;37312;47.550;18.818;2022-11-14T07:49:14;23.38;;;20.83;;
51236;SDS011;37312;47.550;18.818;2022-11-14T07:51:40;24.60;;;22.17;;
51236;SDS011;37312;47.550;18.818;2022-11-14T07:54:08;27.67;;;24.10;;
51236;SDS011;37312;47.550;18.818;2022-11-14T07:56:36;20.92;;;19.12;;
51236;SDS011;37312;47.550;18.818;2022-11-14T07:59:02;20.20;;;18.37;;
51236;SDS011;37312;47.550;18.818;2022-11-14T08:03:53;22.52;;;20.45;;
51236;SDS011;37312;47.550;18.818;2022-11-14T08:08:45;18.50;;;16.80;;
51236;SDS011;37312;47.550;18.818;2022-11-14T08:13:37;16.92;;;15.52;;
51236;SDS011;37312;47.550;18.818;2022-11-14T08:16:06;18.50;;;17.10;;
51236;SDS011;37312;47.550;18.818;2022-11-14T08:18:34;18.62;;;17.02;;
51236;SDS011;37312;47.550;18.818;2022-11-14T08:23:29;17.92;;;16.15;;
51236;SDS011;37312;47.550;18.818;2022-11-14T08:25:57;19.87;;;18.12;;
51236;SDS011;37312;47.550;18.818;2022-11-14T08:28:23;19.58;;;17.87;;
51236;SDS011;37312;47.550;18.818;2022-11-14T08:33:15;18.23;;;16.42;;
51236;SDS011;37312;47.550;18.818;2022-11-14T08:35:41;17.80;;;16.40;;
51236;SDS011;37312;47.550;18.818;2022-11-14T08:40:33;18.45;;;16.85;;
51236;SDS011;37312;47.550;18.818;2022-11-14T08:42:59;18.73;;;17.23;;
51236;SDS011;37312;47.550;18.818;2022-11-14T08:45:26;19.20;;;17.42;;
51236;SDS011;37312;47.550;18.818;2022-11-14T08:47:53;18.20;;;16.70;;
51236;SDS011;37312;47.550;18.818;2022-11-14T08:50:19;19.75;;;18.05;;
51236;SDS011;37312;47.550;18.818;2022-11-14T08:52:51;21.40;;;19.55;;
51236;SDS011;37312;47.550;18.818;2022-11-14T08:55:18;18.52;;;17.02;;
51236;SDS011;37312;47.550;18.818;2022-11-14T08:57:45;17.37;;;15.82;;
51236;SDS011;37312;47.550;18.818;2022-11-14T09:00:11;19.77;;;17.92;;
51236;SDS011;37312;47.550;18.818;2022-11-14T09:02:37;18.60;;;16.87;;
51236;SDS011;37312;47.550;18.818;2022-11-14T09:05:03;17.35;;;15.73;;
51236;SDS011;37312;47.550;18.818;2022-11-14T09:09:55;18.83;;;17.23;;
51236;SDS011;37312;47.550;18.818;2022-11-14T09:12:21;20.80;;;18.87;;
51236;SDS011;37312;47.550;18.818;2022-11-14T09:14:47;18.58;;;16.85;;
51236;SDS011;37312;47.550;18.818;2022-11-14T09:17:13;18.85;;;17.25;;
51236;SDS011;37312;47.550;18.818;2022-11-14T09:19:39;21.02;;;18.92;;
51236;SDS011;37312;47.550;18.818;2022-11-14T09:22:05;21.83;;;19.62;;
51236;SDS011;37312;47.550;18.818;2022-11-14T09:24:31;20.30;;;18.70;;
51236;SDS011;37312;47.550;18.818;2022-11-14T09:26:57;19.73;;;18.08;;
51236;SDS011;37312;47.550;18.818;2022-11-14T09:29:22;21.48;;;19.55;;
51236;SDS011;37312;47.550;18.818;2022-11-14T09:31:50;24.48;;;21.90;;
51236;SDS011;37312;47.550;18.818;2022-11-14T09:34:16;23.65;;;21.35;;
51236;SDS011;37312;47.550;18.818;2022-11-14T09:36:42;22.60;;;20.60;;
51236;SDS011;37312;47.550;18.818;2022-11-14T09:39:08;24.77;;;22.67;;
51236;SDS011;37312;47.550;18.818;2022-11-14T09:41:47;22.92;;;20.75;;
51236;SDS011;37312;47.550;18.818;2022-11-14T09:45:03;20.05;;;18.27;;
51236;SDS011;37312;47.550;18.818;2022-11-14T09:47:09;20.25;;;18.40;;
51236;SDS011;37312;47.550;18.818;2022-11-14T09:49:45;21.85;;;19.67;;
51236;SDS011;37312;47.550;18.818;2022-11-14T09:54:51;24.00;;;21.83;;
51236;SDS011;37312;47.550;18.818;2022-11-14T09:57:22;20.88;;;18.85;;
51236;SDS011;37312;47.550;18.818;2022-11-14T09:59:50;21.33;;;19.45;;
51236;SDS011;37312;47.550;18.818;2022-11-14T10:14:55;20.45;;;18.58;;
51236;SDS011;37312;47.550;18.818;2022-11-14T10:26:11;22.77;;;20.67;;
51236;SDS011;37312;47.550;18.818;2022-11-14T10:34:18;24.20;;;22.05;;
51236;SDS011;37312;47.550;18.818;2022-11-14T10:36:57;23.60;;;21.25;;
51236;SDS011;37312;47.550;18.818;2022-11-14T10:39:43;23.35;;;21.15;;
51236;SDS011;37312;47.550;18.818;2022-11-14T10:42:16;25.00;;;22.50;;
51236;SDS011;37312;47.550;18.818;2022-11-14T10:44:51;27.23;;;24.35;;
51236;SDS011;37312;47.550;18.818;2022-11-14T10:47:22;28.55;;;25.37;;
51236;SDS011;37312;47.550;18.818;2022-11-14T10:49:53;27.95;;;25.35;;
51236;SDS011;37312;47.550;18.818;2022-11-14T10:52:35;29.27;;;26.27;;
51236;SDS011;37312;47.550;18.818;2022-11-14T10:55:06;30.25;;;27.25;;
51236;SDS011;37312;47.550;18.818;2022-11-14T10:57:39;38.00;;;29.20;;
51236;SDS011;37312;47.550;18.818;2022-11-14T11:00:09;30.42;;;27.58;;
51236;SDS011;37312;47.550;18.818;2022-11-14T11:02:48;29.92;;;27.08;;
51236;SDS011;37312;47.550;18.818;2022-11-14T11:05:14;31.52;;;28.33;;
51236;SDS011;37312;47.550;18.818;2022-11-14T11:07:46;33.30;;;29.87;;
51236;SDS011;37312;47.550;18.818;2022-11-14T11:10:31;31.17;;;26.98;;
51236;SDS011;37312;47.550;18.818;2022-11-14T11:13:32;29.77;;;27.05;;
51236;SDS011;37312;47.550;18.818;2022-11-14T11:16:01;34.38;;;31.10;;
51236;SDS011;37312;47.550;18.818;2022-11-14T11:18:34;31.67;;;28.77;;
51236;SDS011;37312;47.550;18.818;2022-11-14T11:23:32;31.05;;;28.12;;
51236;SDS011;37312;47.550;18.818;2022-11-14T11:28:25;32.67;;;29.33;;
51236;SDS011;37312;47.550;18.818;2022-11-14T11:33:23;31.02;;;28.12;;
51236;SDS011;37312;47.550;18.818;2022-11-14T11:35:54;33.55;;;30.27;;
51236;SDS011;37312;47.550;18.818;2022-11-14T11:38:25;34.90;;;31.52;;
51236;SDS011;37312;47.550;18.818;2022-11-14T11:40:55;34.90;;;31.45;;
51236;SDS011;37312;47.550;18.818;2022-11-14T11:43:44;33.03;;;29.58;;
51236;SDS011;37312;47.550;18.818;2022-11-14T11:46:17;35.15;;;31.90;;
51236;SDS011;37312;47.550;18.818;2022-11-14T11:48:50;36.92;;;33.25;;
51236;SDS011;37312;47.550;18.818;2022-11-14T11:51:24;34.55;;;31.10;;
51236;SDS011;37312;47.550;18.818;2022-11-14T11:53:56;34.13;;;30.90;;
51236;SDS011;37312;47.550;18.818;2022-11-14T11:56:29;35.40;;;31.75;;
51236;SDS011;37312;47.550;18.818;2022-11-14T11:59:09;33.53;;;30.48;;
51236;SDS011;37312;47.550;18.818;2022-11-14T12:02:01;36.33;;;32.53;;
51236;SDS011;37312;47.550;18.818;2022-11-14T12:04:38;34.50;;;31.08;;
51236;SDS011;37312;47.550;18.818;2022-11-14T12:07:09;38.67;;;32.38;;
51236;SDS011;37312;47.550;18.818;2022-11-14T12:09:40;34.97;;;31.70;;
51236;SDS011;37312;47.550;18.818;2022-11-14T12:12:10;33.15;;;29.98;;
51236;SDS011;37312;47.550;18.818;2022-11-14T12:15:15;32.83;;;29.58;;
51236;SDS011;37312;47.550;18.818;2022-11-14T12:20:30;31.30;;;28.42;;
51236;SDS011;37312;47.550;18.818;2022-11-14T12:25:59;34.40;;;30.75;;
51236;SDS011;37312;47.550;18.818;2022-11-14T12:31:15;31.95;;;28.85;;
51236;SDS011;37312;47.550;18.818;2022-11-14T12:33:43;32.90;;;29.17;;
51236;SDS011;37312;47.550;18.818;2022-11-14T12:36:17;33.58;;;30.27;;
51236;SDS011;37312;47.550;18.818;2022-11-14T12:38:51;34.28;;;30.50;;
51236;SDS011;37312;47.550;18.818;2022-11-14T12:41:25;33.00;;;29.75;;
51236;SDS011;37312;47.550;18.818;2022-11-14T12:44:16;30.88;;;27.75;;
51236;SDS011;37312;47.550;18.818;2022-11-14T12:49:35;34.53;;;31.05;;
51236;SDS011;37312;47.550;18.818;2022-11-14T12:52:03;32.17;;;27.13;;
51236;SDS011;37312;47.550;18.818;2022-11-14T12:54:49;31.70;;;28.38;;
51236;SDS011;37312;47.550;18.818;2022-11-14T12:57:18;31.15;;;28.00;;
51236;SDS011;37312;47.550;18.818;2022-11-14T13:00:10;32.65;;;29.42;;
51236;SDS011;37312;47.550;18.818;2022-11-14T13:03:40;28.95;;;26.30;;
51236;SDS011;37312;47.550;18.818;2022-11-14T13:05:54;34.33;;;29.85;;
51236;SDS011;37312;47.550;18.818;2022-11-14T13:14:18;17.05;;;12.55;;
51236;SDS011;37312;47.550;18.818;2022-11-14T13:19:57;15.82;;;13.25;;
51236;SDS011;37312;47.550;18.818;2022-11-14T13:22:42;19.20;;;14.80;;
51236;SDS011;37312;47.550;18.818;2022-11-14T13:27:35;18.42;;;16.48;;
51236;SDS011;37312;47.550;18.818;2022-11-14T13:30:02;17.05;;;14.32;;
51236;SDS011;37312;47.550;18.818;2022-11-14T13:35:17;16.42;;;12.88;;
51236;SDS011;37312;47.550;18.818;2022-11-14T13:40:19;16.10;;;14.10;;
51236;SDS011;37312;47.550;18.818;2022-11-14T13:42:58;18.17;;;16.37;;
51236;SDS011;37312;47.550;18.818;2022-11-14T13:48:35;20.37;;;17.62;;
51236;SDS011;37312;47.550;18.818;2022-11-14T13:51:09;20.73;;;18.27;;
51236;SDS011;37312;47.550;18.818;2022-11-14T13:53:39;16.45;;;14.85;;
51236;SDS011;37312;47.550;18.818;2022-11-14T13:56:16;16.92;;;15.15;;
51236;SDS011;37312;47.550;18.818;2022-11-14T14:02:03;17.62;;;15.77;;
51236;SDS011;37312;47.550;18.818;2022-11-14T14:13:13;13.57;;;12.32;;
51236;SDS011;37312;47.550;18.818;2022-11-14T14:27:09;25.33;;;20.30;;
51236;SDS011;37312;47.550;18.818;2022-11-14T14:30:09;26.02;;;19.27;;
51236;SDS011;37312;47.550;18.818;2022-11-14T14:32:37;22.90;;;17.37;;
51236;SDS011;37312;47.550;18.818;2022-11-14T14:37:49;24.67;;;19.92;;
51236;SDS011;37312;47.550;18.818;2022-11-14T14:40:38;27.05;;;18.05;;
51236;SDS011;37312;47.550;18.818;2022-11-14T14:43:04;24.55;;;19.00;;
51236;SDS011;37312;47.550;18.818;2022-11-14T14:45:35;32.33;;;20.48;;
51236;SDS011;37312;47.550;18.818;2022-11-14T14:48:14;51.25;;;41.45;;
51236;SDS011;37312;47.550;18.818;2022-11-14T14:50:49;29.45;;;22.37;;
51236;SDS011;37312;47.550;18.818;2022-11-14T14:55:58;19.58;;;17.60;;
51236;SDS011;37312;47.550;18.818;2022-11-14T14:58:29;25.23;;;17.55;;
51236;SDS011;37312;47.550;18.818;2022-11-14T15:00:58;25.12;;;18.50;;
51236;SDS011;37312;47.550;18.818;2022-11-14T15:03:36;32.17;;;19.85;;
51236;SDS011;37312;47.550;18.818;2022-11-14T15:06:16;26.90;;;19.73;;
51236;SDS011;37312;47.550;18.818;2022-11-14T15:09:09;36.28;;;27.15;;
51236;SDS011;37312;47.550;18.818;2022-11-14T15:11:43;34.00;;;26.15;;
51236;SDS011;37312;47.550;18.818;2022-11-14T15:14:12;26.50;;;21.05;;
51236;SDS011;37312;47.550;18.818;2022-11-14T15:16:40;27.37;;;20.92;;
51236;SDS011;37312;47.550;18.818;2022-11-14T15:19:11;29.77;;;24.23;;
51236;SDS011;37312;47.550;18.818;2022-11-14T15:21:38;35.33;;;25.55;;
51236;SDS011;37312;47.550;18.818;2022-11-14T15:24:14;29.27;;;26.12;;
51236;SDS011;37312;47.550;18.818;2022-11-14T15:26:43;33.95;;;22.80;;
51236;SDS011;37312;47.550;18.818;2022-11-14T15:29:17;21.67;;;19.52;;
51236;SDS011;37312;47.550;18.818;2022-11-14T15:31:49;29.30;;;21.50;;
51236;SDS011;37312;47.550;18.818;2022-11-14T15:39:39;29.58;;;22.17;;
51236;SDS011;37312;47.550;18.818;2022-11-14T15:42:13;31.08;;;24.40;;
51236;SDS011;37312;47.550;18.818;2022-11-14T15:44:59;42.88;;;26.90;;
51236;SDS011;37312;47.550;18.818;2022-11-14T15:47:38;31.60;;;28.30;;
51236;SDS011;37312;47.550;18.818;2022-11-14T15:52:37;37.35;;;29.23;;
51236;SDS011;37312;47.550;18.818;2022-11-14T15:55:24;39.53;;;29.12;;
51236;SDS011;37312;47.550;18.818;2022-11-14T15:57:50;44.95;;;32.53;;
51236;SDS011;37312;47.550;18.818;2022-11-14T16:00:17;38.30;;;31.15;;
51236;SDS011;37312;47.550;18.818;2022-11-14T16:02:45;38.47;;;28.87;;
51236;SDS011;37312;47.550;18.818;2022-11-14T16:05:28;33.30;;;27.10;;
51236;SDS011;37312;47.550;18.818;2022-11-14T16:07:55;37.67;;;30.27;;
51236;SDS011;37312;47.550;18.818;2022-11-14T16:10:22;43.47;;;34.83;;
51236;SDS011;37312;47.550;18.818;2022-11-14T16:12:50;40.03;;;32.78;;
51236;SDS011;37312;47.550;18.818;2022-11-14T16:15:16;36.17;;;28.33;;
51236;SDS011;37312;47.550;18.818;2022-11-14T16:17:44;42.22;;;26.87;;
51236;SDS011;37312;47.550;18.818;2022-11-14T16:20:15;40.97;;;30.35;;
51236;SDS011;37312;47.550;18.818;2022-11-14T16:22:46;40.83;;;31.48;;
51236;SDS011;37312;47.550;18.818;2022-11-14T16:25:15;35.30;;;30.65;;
51236;SDS011;37312;47.550;18.818;2022-11-14T16:27:43;39.95;;;30.70;;
51236;SDS011;37312;47.550;18.818;2022-11-14T16:30:10;50.75;;;32.47;;
51236;SDS011;37312;47.550;18.818;2022-11-14T16:32:38;36.85;;;30.75;;
51236;SDS011;37312;47.550;18.818;2022-11-14T16:35:15;39.95;;;31.77;;
51236;SDS011;37312;47.550;18.818;2022-11-14T16:37:41;39.05;;;32.38;;
51236;SDS011;37312;47.550;18.818;2022-11-14T16:42:37;34.25;;;30.62;;
51236;SDS011;37312;47.550;18.818;2022-11-14T16:45:03;41.95;;;37.45;;
51236;SDS011;37312;47.550;18.818;2022-11-14T16:47:30;42.70;;;37.72;;
51236;SDS011;37312;47.550;18.818;2022-11-14T16:49:57;42.58;;;37.97;;